Tanhoj, Russia
Current Conditions -  °F | °C
As of 5:00 AM on Friday 24 Oct 2014 (Local Time) from UIII Reporting Station
Smoke Smoke  
Wind Chill: 23°   Ceiling: 20000
Heat Index: 32°   Visibility: 2.1mi
Dew Point: 30°   Wind: 11mph
Humidity: 93%   Direction: 160°SSE
Pressure: 29.68"   Gusts: NA
Location:  51.55°N, 105.13°E
Report Text: UIII 232100Z 16005MPS 3500 FU BKN200 M00/M01 Q1005 NOSIG RMKQFE710/0946 30190055
Loading
Personal Weather Stations






























Interactive Weather Map
Tropical Storm Tracking
New forecast layout! Learn more

10-Day Weather Forecast

Advertisements
Track Severe Weather on mobile